sensor_id;sensor_type;location;lat;lon;timestamp;P1;durP1;ratioP1;P2;durP2;ratioP2
70312;SDS011;57723;51.698;5.344;2024-02-04T00:00:35;5.80;;;2.00;;
70312;SDS011;57723;51.698;5.344;2024-02-04T00:03:02;3.38;;;1.63;;
70312;SDS011;57723;51.698;5.344;2024-02-04T00:05:27;4.90;;;1.80;;
70312;SDS011;57723;51.698;5.344;2024-02-04T00:07:53;4.93;;;1.90;;
70312;SDS011;57723;51.698;5.344;2024-02-04T00:10:18;4.20;;;1.70;;
70312;SDS011;57723;51.698;5.344;2024-02-04T00:12:43;3.67;;;1.70;;
70312;SDS011;57723;51.698;5.344;2024-02-04T00:15:09;4.37;;;1.87;;
70312;SDS011;57723;51.698;5.344;2024-02-04T00:17:37;5.93;;;1.73;;
70312;SDS011;57723;51.698;5.344;2024-02-04T00:20:06;4.05;;;1.85;;
70312;SDS011;57723;51.698;5.344;2024-02-04T00:22:32;7.30;;;1.70;;
70312;SDS011;57723;51.698;5.344;2024-02-04T00:24:59;4.22;;;1.70;;
70312;SDS011;57723;51.698;5.344;2024-02-04T00:27:29;4.05;;;1.83;;
70312;SDS011;57723;51.698;5.344;2024-02-04T00:29:55;4.00;;;1.75;;
70312;SDS011;57723;51.698;5.344;2024-02-04T00:32:20;5.37;;;1.90;;
70312;SDS011;57723;51.698;5.344;2024-02-04T00:34:45;5.20;;;1.90;;
70312;SDS011;57723;51.698;5.344;2024-02-04T00:37:11;5.23;;;2.07;;
70312;SDS011;57723;51.698;5.344;2024-02-04T00:39:36;4.40;;;1.60;;
70312;SDS011;57723;51.698;5.344;2024-02-04T00:42:01;3.53;;;1.73;;
70312;SDS011;57723;51.698;5.344;2024-02-04T00:44:27;4.53;;;1.55;;
70312;SDS011;57723;51.698;5.344;2024-02-04T00:46:52;4.80;;;1.80;;
70312;SDS011;57723;51.698;5.344;2024-02-04T00:49:17;3.87;;;1.80;;
70312;SDS011;57723;51.698;5.344;2024-02-04T00:51:44;7.05;;;1.50;;
70312;SDS011;57723;51.698;5.344;2024-02-04T00:54:10;4.32;;;1.63;;
70312;SDS011;57723;51.698;5.344;2024-02-04T00:56:35;2.90;;;1.70;;
70312;SDS011;57723;51.698;5.344;2024-02-04T00:59:00;4.47;;;1.60;;
70312;SDS011;57723;51.698;5.344;2024-02-04T01:01:25;4.00;;;1.80;;
70312;SDS011;57723;51.698;5.344;2024-02-04T01:03:51;4.07;;;1.80;;
70312;SDS011;57723;51.698;5.344;2024-02-04T01:06:16;4.83;;;1.67;;
70312;SDS011;57723;51.698;5.344;2024-02-04T01:08:41;5.20;;;2.17;;
70312;SDS011;57723;51.698;5.344;2024-02-04T01:11:06;3.17;;;1.63;;
70312;SDS011;57723;51.698;5.344;2024-02-04T01:13:32;5.33;;;1.47;;
70312;SDS011;57723;51.698;5.344;2024-02-04T01:15:57;9.20;;;1.83;;
70312;SDS011;57723;51.698;5.344;2024-02-04T01:18:22;4.30;;;1.43;;
70312;SDS011;57723;51.698;5.344;2024-02-04T01:20:48;4.40;;;1.80;;
70312;SDS011;57723;51.698;5.344;2024-02-04T01:23:14;5.55;;;1.73;;
70312;SDS011;57723;51.698;5.344;2024-02-04T01:25:42;2.08;;;1.38;;
70312;SDS011;57723;51.698;5.344;2024-02-04T01:28:07;5.43;;;1.60;;
70312;SDS011;57723;51.698;5.344;2024-02-04T01:30:33;4.07;;;1.60;;
70312;SDS011;57723;51.698;5.344;2024-02-04T01:32:58;3.03;;;1.73;;
70312;SDS011;57723;51.698;5.344;2024-02-04T01:35:23;4.23;;;1.83;;
70312;SDS011;57723;51.698;5.344;2024-02-04T01:37:49;2.70;;;1.47;;
70312;SDS011;57723;51.698;5.344;2024-02-04T01:40:15;3.80;;;1.83;;
70312;SDS011;57723;51.698;5.344;2024-02-04T01:42:40;4.70;;;1.50;;
70312;SDS011;57723;51.698;5.344;2024-02-04T01:45:06;5.47;;;2.00;;
70312;SDS011;57723;51.698;5.344;2024-02-04T01:47:32;3.13;;;1.70;;
70312;SDS011;57723;51.698;5.344;2024-02-04T01:49:58;3.35;;;1.27;;
70312;SDS011;57723;51.698;5.344;2024-02-04T01:52:23;4.87;;;1.50;;
70312;SDS011;57723;51.698;5.344;2024-02-04T01:54:48;3.30;;;1.47;;
70312;SDS011;57723;51.698;5.344;2024-02-04T01:57:14;2.85;;;1.63;;
70312;SDS011;57723;51.698;5.344;2024-02-04T01:59:39;4.83;;;1.50;;
70312;SDS011;57723;51.698;5.344;2024-02-04T02:02:05;3.90;;;1.70;;
70312;SDS011;57723;51.698;5.344;2024-02-04T02:04:30;4.20;;;1.60;;
70312;SDS011;57723;51.698;5.344;2024-02-04T02:06:56;5.15;;;1.65;;
70312;SDS011;57723;51.698;5.344;2024-02-04T02:09:24;3.20;;;1.55;;
70312;SDS011;57723;51.698;5.344;2024-02-04T02:12:12;3.03;;;1.67;;
70312;SDS011;57723;51.698;5.344;2024-02-04T02:14:37;6.00;;;1.60;;
70312;SDS011;57723;51.698;5.344;2024-02-04T02:17:06;3.85;;;1.60;;
70312;SDS011;57723;51.698;5.344;2024-02-04T02:25:16;3.70;;;1.92;;
70312;SDS011;57723;51.698;5.344;2024-02-04T02:27:51;3.63;;;1.67;;
70312;SDS011;57723;51.698;5.344;2024-02-04T02:30:17;4.38;;;1.90;;
70312;SDS011;57723;51.698;5.344;2024-02-04T02:32:46;4.18;;;1.70;;
70312;SDS011;57723;51.698;5.344;2024-02-04T02:35:12;3.55;;;1.50;;
70312;SDS011;57723;51.698;5.344;2024-02-04T02:37:47;4.47;;;1.40;;
70312;SDS011;57723;51.698;5.344;2024-02-04T02:42:45;3.35;;;1.50;;
70312;SDS011;57723;51.698;5.344;2024-02-04T02:45:11;3.00;;;1.40;;
70312;SDS011;57723;51.698;5.344;2024-02-04T02:47:38;3.78;;;1.40;;
70312;SDS011;57723;51.698;5.344;2024-02-04T02:50:05;3.22;;;1.50;;
70312;SDS011;57723;51.698;5.344;2024-02-04T02:52:34;4.78;;;1.40;;
70312;SDS011;57723;51.698;5.344;2024-02-04T02:54:59;7.83;;;1.63;;
70312;SDS011;57723;51.698;5.344;2024-02-04T02:57:25;4.20;;;1.45;;
70312;SDS011;57723;51.698;5.344;2024-02-04T02:59:50;3.47;;;1.50;;
70312;SDS011;57723;51.698;5.344;2024-02-04T03:02:16;3.53;;;1.50;;
70312;SDS011;57723;51.698;5.344;2024-02-04T03:04:41;5.15;;;1.40;;
70312;SDS011;57723;51.698;5.344;2024-02-04T03:07:06;6.57;;;1.63;;
70312;SDS011;57723;51.698;5.344;2024-02-04T03:09:34;2.93;;;1.20;;
70312;SDS011;57723;51.698;5.344;2024-02-04T03:12:00;3.55;;;1.45;;
70312;SDS011;57723;51.698;5.344;2024-02-04T03:14:25;4.10;;;1.60;;
70312;SDS011;57723;51.698;5.344;2024-02-04T03:16:51;2.77;;;1.30;;
70312;SDS011;57723;51.698;5.344;2024-02-04T03:19:16;8.17;;;1.70;;
70312;SDS011;57723;51.698;5.344;2024-02-04T03:21:41;6.00;;;1.47;;
70312;SDS011;57723;51.698;5.344;2024-02-04T03:24:07;3.95;;;1.35;;
70312;SDS011;57723;51.698;5.344;2024-02-04T03:26:32;2.97;;;1.33;;
70312;SDS011;57723;51.698;5.344;2024-02-04T03:28:57;4.23;;;1.33;;
70312;SDS011;57723;51.698;5.344;2024-02-04T03:31:23;3.67;;;1.57;;
70312;SDS011;57723;51.698;5.344;2024-02-04T03:33:49;3.10;;;1.20;;
70312;SDS011;57723;51.698;5.344;2024-02-04T03:36:19;3.37;;;1.40;;
70312;SDS011;57723;51.698;5.344;2024-02-04T03:38:44;3.08;;;1.52;;
70312;SDS011;57723;51.698;5.344;2024-02-04T03:41:10;2.87;;;1.60;;
70312;SDS011;57723;51.698;5.344;2024-02-04T03:43:38;5.77;;;1.60;;
70312;SDS011;57723;51.698;5.344;2024-02-04T03:46:03;5.40;;;1.58;;
70312;SDS011;57723;51.698;5.344;2024-02-04T03:48:29;5.20;;;1.50;;
70312;SDS011;57723;51.698;5.344;2024-02-04T03:50:54;3.70;;;1.33;;
70312;SDS011;57723;51.698;5.344;2024-02-04T03:53:19;4.83;;;1.43;;
70312;SDS011;57723;51.698;5.344;2024-02-04T03:55:46;6.22;;;1.55;;
70312;SDS011;57723;51.698;5.344;2024-02-04T03:58:11;3.60;;;1.30;;
70312;SDS011;57723;51.698;5.344;2024-02-04T04:00:37;3.30;;;1.13;;
70312;SDS011;57723;51.698;5.344;2024-02-04T04:03:02;4.53;;;1.50;;
70312;SDS011;57723;51.698;5.344;2024-02-04T04:05:27;6.30;;;1.70;;
70312;SDS011;57723;51.698;5.344;2024-02-04T04:07:53;2.67;;;1.35;;
70312;SDS011;57723;51.698;5.344;2024-02-04T04:10:18;4.13;;;1.40;;
70312;SDS011;57723;51.698;5.344;2024-02-04T04:12:43;3.33;;;1.40;;
70312;SDS011;57723;51.698;5.344;2024-02-04T04:15:09;5.57;;;1.60;;
70312;SDS011;57723;51.698;5.344;2024-02-04T04:17:34;2.63;;;1.30;;
70312;SDS011;57723;51.698;5.344;2024-02-04T04:19:59;4.63;;;1.50;;
70312;SDS011;57723;51.698;5.344;2024-02-04T04:22:25;3.93;;;1.53;;
70312;SDS011;57723;51.698;5.344;2024-02-04T04:24:50;3.83;;;1.47;;
70312;SDS011;57723;51.698;5.344;2024-02-04T04:27:15;4.87;;;1.50;;
70312;SDS011;57723;51.698;5.344;2024-02-04T04:29:41;4.28;;;1.73;;
70312;SDS011;57723;51.698;5.344;2024-02-04T04:32:06;3.40;;;1.48;;
70312;SDS011;57723;51.698;5.344;2024-02-04T04:34:31;2.53;;;1.30;;
70312;SDS011;57723;51.698;5.344;2024-02-04T04:36:56;4.33;;;1.20;;
70312;SDS011;57723;51.698;5.344;2024-02-04T04:39:22;6.80;;;1.57;;
70312;SDS011;57723;51.698;5.344;2024-02-04T04:41:47;3.13;;;1.40;;
70312;SDS011;57723;51.698;5.344;2024-02-04T04:44:12;3.17;;;1.20;;
70312;SDS011;57723;51.698;5.344;2024-02-04T04:46:38;4.13;;;1.37;;
70312;SDS011;57723;51.698;5.344;2024-02-04T04:49:04;3.50;;;1.35;;
70312;SDS011;57723;51.698;5.344;2024-02-04T04:51:30;4.73;;;1.50;;
70312;SDS011;57723;51.698;5.344;2024-02-04T04:53:55;3.33;;;1.40;;
70312;SDS011;57723;51.698;5.344;2024-02-04T04:56:20;6.43;;;1.43;;
70312;SDS011;57723;51.698;5.344;2024-02-04T04:58:46;2.73;;;1.40;;
70312;SDS011;57723;51.698;5.344;2024-02-04T05:01:11;3.13;;;1.20;;
70312;SDS011;57723;51.698;5.344;2024-02-04T05:03:36;3.33;;;1.23;;
70312;SDS011;57723;51.698;5.344;2024-02-04T05:06:01;5.47;;;1.50;;
70312;SDS011;57723;51.698;5.344;2024-02-04T05:08:26;5.37;;;1.53;;
70312;SDS011;57723;51.698;5.344;2024-02-04T05:10:52;4.27;;;1.30;;
70312;SDS011;57723;51.698;5.344;2024-02-04T05:13:17;5.07;;;1.30;;
70312;SDS011;57723;51.698;5.344;2024-02-04T05:15:42;4.03;;;1.40;;
70312;SDS011;57723;51.698;5.344;2024-02-04T05:18:08;4.23;;;1.23;;
70312;SDS011;57723;51.698;5.344;2024-02-04T05:20:33;5.47;;;1.30;;
70312;SDS011;57723;51.698;5.344;2024-02-04T05:22:59;3.63;;;1.38;;
70312;SDS011;57723;51.698;5.344;2024-02-04T05:25:25;4.40;;;1.30;;
70312;SDS011;57723;51.698;5.344;2024-02-04T05:27:50;3.30;;;1.30;;
70312;SDS011;57723;51.698;5.344;2024-02-04T05:30:15;3.40;;;1.40;;
70312;SDS011;57723;51.698;5.344;2024-02-04T05:32:41;2.43;;;1.20;;
70312;SDS011;57723;51.698;5.344;2024-02-04T05:35:09;2.75;;;1.13;;
70312;SDS011;57723;51.698;5.344;2024-02-04T05:37:34;3.45;;;1.40;;
70312;SDS011;57723;51.698;5.344;2024-02-04T05:39:59;4.05;;;1.60;;
70312;SDS011;57723;51.698;5.344;2024-02-04T05:42:25;3.85;;;1.30;;
70312;SDS011;57723;51.698;5.344;2024-02-04T05:44:50;4.20;;;1.30;;
70312;SDS011;57723;51.698;5.344;2024-02-04T05:47:15;5.57;;;1.57;;
70312;SDS011;57723;51.698;5.344;2024-02-04T05:49:41;3.03;;;1.40;;
70312;SDS011;57723;51.698;5.344;2024-02-04T05:52:06;4.47;;;1.30;;
70312;SDS011;57723;51.698;5.344;2024-02-04T05:54:32;2.90;;;1.30;;
70312;SDS011;57723;51.698;5.344;2024-02-04T05:56:57;3.33;;;1.30;;
70312;SDS011;57723;51.698;5.344;2024-02-04T05:59:23;4.75;;;1.70;;
70312;SDS011;57723;51.698;5.344;2024-02-04T06:01:48;2.57;;;1.10;;
70312;SDS011;57723;51.698;5.344;2024-02-04T06:04:13;4.63;;;1.30;;
70312;SDS011;57723;51.698;5.344;2024-02-04T06:06:39;2.33;;;1.30;;
70312;SDS011;57723;51.698;5.344;2024-02-04T06:09:04;7.30;;;1.53;;
70312;SDS011;57723;51.698;5.344;2024-02-04T06:11:29;2.83;;;1.30;;
70312;SDS011;57723;51.698;5.344;2024-02-04T06:13:54;2.80;;;1.43;;
70312;SDS011;57723;51.698;5.344;2024-02-04T06:16:20;3.77;;;1.50;;
70312;SDS011;57723;51.698;5.344;2024-02-04T06:18:45;2.77;;;1.50;;
70312;SDS011;57723;51.698;5.344;2024-02-04T06:21:10;4.73;;;1.50;;
70312;SDS011;57723;51.698;5.344;2024-02-04T06:23:37;2.47;;;1.30;;
70312;SDS011;57723;51.698;5.344;2024-02-04T06:26:03;3.53;;;1.13;;
70312;SDS011;57723;51.698;5.344;2024-02-04T06:28:28;3.67;;;1.30;;
70312;SDS011;57723;51.698;5.344;2024-02-04T06:30:53;3.27;;;1.47;;
70312;SDS011;57723;51.698;5.344;2024-02-04T06:33:19;2.60;;;1.20;;
70312;SDS011;57723;51.698;5.344;2024-02-04T06:35:44;5.35;;;1.45;;
70312;SDS011;57723;51.698;5.344;2024-02-04T06:38:10;3.80;;;1.40;;
70312;SDS011;57723;51.698;5.344;2024-02-04T06:40:35;2.50;;;1.20;;
70312;SDS011;57723;51.698;5.344;2024-02-04T06:43:00;5.77;;;1.77;;
70312;SDS011;57723;51.698;5.344;2024-02-04T06:45:25;2.77;;;1.40;;
70312;SDS011;57723;51.698;5.344;2024-02-04T06:47:51;4.67;;;1.20;;
70312;SDS011;57723;51.698;5.344;2024-02-04T06:50:16;3.70;;;1.20;;
70312;SDS011;57723;51.698;5.344;2024-02-04T06:52:42;4.38;;;1.55;;
70312;SDS011;57723;51.698;5.344;2024-02-04T06:55:08;5.53;;;1.10;;
70312;SDS011;57723;51.698;5.344;2024-02-04T06:57:33;4.53;;;1.20;;
70312;SDS011;57723;51.698;5.344;2024-02-04T06:59:58;2.40;;;1.07;;
70312;SDS011;57723;51.698;5.344;2024-02-04T07:02:24;3.37;;;1.00;;
70312;SDS011;57723;51.698;5.344;2024-02-04T07:04:49;2.80;;;1.27;;
70312;SDS011;57723;51.698;5.344;2024-02-04T07:07:14;5.40;;;1.30;;
70312;SDS011;57723;51.698;5.344;2024-02-04T07:09:40;4.13;;;1.30;;
70312;SDS011;57723;51.698;5.344;2024-02-04T07:12:05;5.50;;;1.30;;
70312;SDS011;57723;51.698;5.344;2024-02-04T07:14:30;1.83;;;1.10;;
70312;SDS011;57723;51.698;5.344;2024-02-04T07:16:56;2.83;;;1.00;;
70312;SDS011;57723;51.698;5.344;2024-02-04T07:19:23;4.87;;;1.33;;
70312;SDS011;57723;51.698;5.344;2024-02-04T07:21:49;7.10;;;1.65;;
70312;SDS011;57723;51.698;5.344;2024-02-04T07:24:14;3.75;;;1.17;;
70312;SDS011;57723;51.698;5.344;2024-02-04T07:26:39;2.67;;;1.33;;
70312;SDS011;57723;51.698;5.344;2024-02-04T07:29:05;3.33;;;1.20;;
70312;SDS011;57723;51.698;5.344;2024-02-04T07:31:30;3.80;;;1.27;;
70312;SDS011;57723;51.698;5.344;2024-02-04T07:33:55;4.43;;;1.27;;
70312;SDS011;57723;51.698;5.344;2024-02-04T07:36:21;4.83;;;1.30;;
70312;SDS011;57723;51.698;5.344;2024-02-04T07:38:46;3.90;;;1.17;;
70312;SDS011;57723;51.698;5.344;2024-02-04T07:41:14;5.53;;;1.25;;
70312;SDS011;57723;51.698;5.344;2024-02-04T07:43:43;2.30;;;1.20;;
70312;SDS011;57723;51.698;5.344;2024-02-04T07:46:09;5.30;;;1.13;;
70312;SDS011;57723;51.698;5.344;2024-02-04T07:48:34;19.30;;;1.70;;
70312;SDS011;57723;51.698;5.344;2024-02-04T07:51:00;7.07;;;1.20;;
70312;SDS011;57723;51.698;5.344;2024-02-04T07:53:25;7.40;;;1.30;;
70312;SDS011;57723;51.698;5.344;2024-02-04T07:55:50;5.77;;;1.00;;
70312;SDS011;57723;51.698;5.344;2024-02-04T07:58:16;3.43;;;1.40;;
70312;SDS011;57723;51.698;5.344;2024-02-04T08:00:41;4.47;;;1.20;;
70312;SDS011;57723;51.698;5.344;2024-02-04T08:03:06;4.43;;;1.20;;
70312;SDS011;57723;51.698;5.344;2024-02-04T08:05:32;7.47;;;1.50;;
70312;SDS011;57723;51.698;5.344;2024-02-04T08:08:00;3.85;;;1.20;;
70312;SDS011;57723;51.698;5.344;2024-02-04T08:10:26;3.17;;;1.27;;
70312;SDS011;57723;51.698;5.344;2024-02-04T08:12:52;7.88;;;1.20;;
70312;SDS011;57723;51.698;5.344;2024-02-04T08:15:19;5.40;;;1.30;;
70312;SDS011;57723;51.698;5.344;2024-02-04T08:17:44;3.92;;;1.08;;
70312;SDS011;57723;51.698;5.344;2024-02-04T08:20:12;3.67;;;1.30;;
70312;SDS011;57723;51.698;5.344;2024-02-04T08:22:37;2.67;;;1.15;;
70312;SDS011;57723;51.698;5.344;2024-02-04T08:25:04;9.70;;;1.30;;
70312;SDS011;57723;51.698;5.344;2024-02-04T08:27:30;5.40;;;1.40;;
70312;SDS011;57723;51.698;5.344;2024-02-04T08:29:56;3.83;;;1.30;;
70312;SDS011;57723;51.698;5.344;2024-02-04T08:32:21;2.23;;;1.00;;
70312;SDS011;57723;51.698;5.344;2024-02-04T08:34:46;3.27;;;1.70;;
70312;SDS011;57723;51.698;5.344;2024-02-04T08:37:15;3.47;;;1.10;;
70312;SDS011;57723;51.698;5.344;2024-02-04T08:39:40;4.45;;;1.20;;
70312;SDS011;57723;51.698;5.344;2024-02-04T08:42:06;4.77;;;1.27;;
70312;SDS011;57723;51.698;5.344;2024-02-04T08:44:37;5.03;;;1.23;;
70312;SDS011;57723;51.698;5.344;2024-02-04T08:47:03;5.30;;;1.27;;
70312;SDS011;57723;51.698;5.344;2024-02-04T08:49:29;2.60;;;1.20;;
70312;SDS011;57723;51.698;5.344;2024-02-04T08:51:55;3.45;;;1.10;;
70312;SDS011;57723;51.698;5.344;2024-02-04T08:54:20;2.80;;;1.20;;
70312;SDS011;57723;51.698;5.344;2024-02-04T08:56:45;2.10;;;1.10;;
70312;SDS011;57723;51.698;5.344;2024-02-04T08:59:10;3.67;;;1.10;;
70312;SDS011;57723;51.698;5.344;2024-02-04T09:01:36;4.87;;;1.17;;
70312;SDS011;57723;51.698;5.344;2024-02-04T09:04:04;3.00;;;1.10;;
70312;SDS011;57723;51.698;5.344;2024-02-04T09:06:29;3.20;;;1.40;;
70312;SDS011;57723;51.698;5.344;2024-02-04T09:08:55;2.50;;;1.20;;
70312;SDS011;57723;51.698;5.344;2024-02-04T09:11:21;4.13;;;1.57;;
70312;SDS011;57723;51.698;5.344;2024-02-04T09:13:46;2.53;;;1.10;;
70312;SDS011;57723;51.698;5.344;2024-02-04T09:16:12;3.43;;;1.20;;
70312;SDS011;57723;51.698;5.344;2024-02-04T09:18:37;3.78;;;1.30;;
70312;SDS011;57723;51.698;5.344;2024-02-04T09:21:02;2.13;;;1.10;;
70312;SDS011;57723;51.698;5.344;2024-02-04T09:23:28;2.90;;;1.40;;
70312;SDS011;57723;51.698;5.344;2024-02-04T09:25:53;4.70;;;1.30;;
70312;SDS011;57723;51.698;5.344;2024-02-04T09:28:18;2.10;;;1.27;;
70312;SDS011;57723;51.698;5.344;2024-02-04T09:30:44;3.00;;;1.57;;
70312;SDS011;57723;51.698;5.344;2024-02-04T09:33:09;3.03;;;1.60;;
70312;SDS011;57723;51.698;5.344;2024-02-04T09:35:34;1.63;;;1.00;;
70312;SDS011;57723;51.698;5.344;2024-02-04T09:38:00;2.10;;;1.00;;
70312;SDS011;57723;51.698;5.344;2024-02-04T09:40:25;4.45;;;1.10;;
70312;SDS011;57723;51.698;5.344;2024-02-04T09:42:50;2.10;;;1.00;;
70312;SDS011;57723;51.698;5.344;2024-02-04T09:45:17;3.10;;;1.10;;
70312;SDS011;57723;51.698;5.344;2024-02-04T09:47:42;2.00;;;1.10;;
70312;SDS011;57723;51.698;5.344;2024-02-04T09:50:09;2.80;;;1.13;;
70312;SDS011;57723;51.698;5.344;2024-02-04T09:52:35;2.27;;;1.07;;
70312;SDS011;57723;51.698;5.344;2024-02-04T09:55:04;2.70;;;1.10;;
70312;SDS011;57723;51.698;5.344;2024-02-04T09:57:30;1.83;;;1.00;;
70312;SDS011;57723;51.698;5.344;2024-02-04T09:59:57;2.13;;;1.00;;
70312;SDS011;57723;51.698;5.344;2024-02-04T10:02:22;3.50;;;1.07;;
70312;SDS011;57723;51.698;5.344;2024-02-04T10:04:48;1.75;;;0.90;;
70312;SDS011;57723;51.698;5.344;2024-02-04T10:07:13;4.20;;;1.17;;
70312;SDS011;57723;51.698;5.344;2024-02-04T10:09:41;2.17;;;1.05;;
70312;SDS011;57723;51.698;5.344;2024-02-04T10:12:07;2.53;;;1.00;;
70312;SDS011;57723;51.698;5.344;2024-02-04T10:14:33;1.65;;;0.95;;
70312;SDS011;57723;51.698;5.344;2024-02-04T10:16:59;1.23;;;0.90;;
70312;SDS011;57723;51.698;5.344;2024-02-04T10:19:24;1.95;;;0.90;;
70312;SDS011;57723;51.698;5.344;2024-02-04T10:22:00;2.53;;;1.20;;
70312;SDS011;57723;51.698;5.344;2024-02-04T10:24:26;1.83;;;1.00;;
70312;SDS011;57723;51.698;5.344;2024-02-04T10:26:51;2.40;;;1.20;;
70312;SDS011;57723;51.698;5.344;2024-02-04T10:29:17;1.73;;;1.10;;
70312;SDS011;57723;51.698;5.344;2024-02-04T10:31:43;2.88;;;1.10;;
70312;SDS011;57723;51.698;5.344;2024-02-04T10:34:08;2.23;;;1.00;;
70312;SDS011;57723;51.698;5.344;2024-02-04T10:36:34;3.67;;;1.30;;
70312;SDS011;57723;51.698;5.344;2024-02-04T10:38:59;2.10;;;1.10;;
70312;SDS011;57723;51.698;5.344;2024-02-04T10:41:24;2.67;;;1.10;;
70312;SDS011;57723;51.698;5.344;2024-02-04T10:43:50;1.42;;;0.90;;
70312;SDS011;57723;51.698;5.344;2024-02-04T10:46:20;1.80;;;0.98;;
70312;SDS011;57723;51.698;5.344;2024-02-04T10:49:05;2.67;;;1.10;;
70312;SDS011;57723;51.698;5.344;2024-02-04T10:51:34;2.58;;;1.00;;
70312;SDS011;57723;51.698;5.344;2024-02-04T10:54:01;2.08;;;1.15;;
70312;SDS011;57723;51.698;5.344;2024-02-04T10:56:37;2.63;;;1.20;;
70312;SDS011;57723;51.698;5.344;2024-02-04T10:59:03;1.77;;;1.00;;
70312;SDS011;57723;51.698;5.344;2024-02-04T11:01:29;2.50;;;1.10;;
70312;SDS011;57723;51.698;5.344;2024-02-04T11:03:54;2.00;;;1.00;;
70312;SDS011;57723;51.698;5.344;2024-02-04T11:06:23;2.40;;;1.10;;
70312;SDS011;57723;51.698;5.344;2024-02-04T11:08:49;2.35;;;0.95;;
70312;SDS011;57723;51.698;5.344;2024-02-04T11:11:14;2.13;;;0.90;;
70312;SDS011;57723;51.698;5.344;2024-02-04T11:13:41;1.97;;;1.20;;
70312;SDS011;57723;51.698;5.344;2024-02-04T11:16:18;2.72;;;1.10;;
70312;SDS011;57723;51.698;5.344;2024-02-04T11:26:17;1.63;;;0.90;;
70312;SDS011;57723;51.698;5.344;2024-02-04T11:28:43;1.55;;;0.90;;
70312;SDS011;57723;51.698;5.344;2024-02-04T11:31:17;1.67;;;0.93;;
70312;SDS011;57723;51.698;5.344;2024-02-04T11:33:43;2.05;;;0.90;;
70312;SDS011;57723;51.698;5.344;2024-02-04T11:36:12;3.07;;;1.20;;
70312;SDS011;57723;51.698;5.344;2024-02-04T11:38:38;1.17;;;0.90;;
70312;SDS011;57723;51.698;5.344;2024-02-04T11:41:04;2.67;;;1.17;;
70312;SDS011;57723;51.698;5.344;2024-02-04T11:43:31;1.50;;;1.00;;
70312;SDS011;57723;51.698;5.344;2024-02-04T11:45:57;1.30;;;0.90;;
70312;SDS011;57723;51.698;5.344;2024-02-04T11:48:28;1.53;;;0.90;;
70312;SDS011;57723;51.698;5.344;2024-02-04T11:50:54;1.63;;;1.10;;
70312;SDS011;57723;51.698;5.344;2024-02-04T11:53:19;3.63;;;1.00;;
70312;SDS011;57723;51.698;5.344;2024-02-04T11:55:44;2.50;;;0.80;;
70312;SDS011;57723;51.698;5.344;2024-02-04T11:58:10;1.48;;;0.95;;
70312;SDS011;57723;51.698;5.344;2024-02-04T12:00:36;2.08;;;1.10;;
70312;SDS011;57723;51.698;5.344;2024-02-04T12:03:05;2.00;;;0.97;;
70312;SDS011;57723;51.698;5.344;2024-02-04T12:05:34;1.15;;;0.90;;
70312;SDS011;57723;51.698;5.344;2024-02-04T12:08:01;2.65;;;1.00;;
70312;SDS011;57723;51.698;5.344;2024-02-04T12:10:26;1.55;;;1.00;;
70312;SDS011;57723;51.698;5.344;2024-02-04T12:12:52;1.10;;;0.80;;
70312;SDS011;57723;51.698;5.344;2024-02-04T12:15:17;1.63;;;0.93;;
70312;SDS011;57723;51.698;5.344;2024-02-04T12:17:42;4.27;;;1.00;;
70312;SDS011;57723;51.698;5.344;2024-02-04T12:20:08;2.50;;;1.00;;
70312;SDS011;57723;51.698;5.344;2024-02-04T12:22:33;2.00;;;1.00;;
70312;SDS011;57723;51.698;5.344;2024-02-04T12:24:59;1.87;;;1.00;;
70312;SDS011;57723;51.698;5.344;2024-02-04T12:27:25;2.17;;;0.80;;
70312;SDS011;57723;51.698;5.344;2024-02-04T12:29:54;2.57;;;1.10;;
70312;SDS011;57723;51.698;5.344;2024-02-04T12:32:19;2.08;;;0.93;;
70312;SDS011;57723;51.698;5.344;2024-02-04T12:34:48;1.67;;;1.00;;
70312;SDS011;57723;51.698;5.344;2024-02-04T12:37:14;2.65;;;1.00;;
70312;SDS011;57723;51.698;5.344;2024-02-04T12:39:39;1.00;;;0.80;;
70312;SDS011;57723;51.698;5.344;2024-02-04T12:42:05;1.52;;;0.90;;
70312;SDS011;57723;51.698;5.344;2024-02-04T12:44:31;1.73;;;0.90;;
70312;SDS011;57723;51.698;5.344;2024-02-04T12:46:56;1.48;;;0.90;;
70312;SDS011;57723;51.698;5.344;2024-02-04T12:49:22;2.27;;;0.80;;
70312;SDS011;57723;51.698;5.344;2024-02-04T12:51:47;1.35;;;0.85;;
70312;SDS011;57723;51.698;5.344;2024-02-04T12:54:13;1.92;;;1.00;;
70312;SDS011;57723;51.698;5.344;2024-02-04T12:56:48;2.70;;;1.03;;
70312;SDS011;57723;51.698;5.344;2024-02-04T12:59:24;1.35;;;0.90;;
70312;SDS011;57723;51.698;5.344;2024-02-04T13:01:53;2.33;;;0.80;;
70312;SDS011;57723;51.698;5.344;2024-02-04T13:04:19;2.30;;;1.10;;
70312;SDS011;57723;51.698;5.344;2024-02-04T13:06:45;1.17;;;0.80;;
70312;SDS011;57723;51.698;5.344;2024-02-04T13:09:11;1.45;;;0.90;;
70312;SDS011;57723;51.698;5.344;2024-02-04T13:11:42;1.80;;;0.70;;
70312;SDS011;57723;51.698;5.344;2024-02-04T13:14:10;1.52;;;0.80;;
70312;SDS011;57723;51.698;5.344;2024-02-04T13:16:38;1.50;;;0.93;;
70312;SDS011;57723;51.698;5.344;2024-02-04T13:19:04;4.43;;;0.88;;
70312;SDS011;57723;51.698;5.344;2024-02-04T13:21:29;2.43;;;1.30;;
70312;SDS011;57723;51.698;5.344;2024-02-04T13:23:55;2.90;;;1.00;;
70312;SDS011;57723;51.698;5.344;2024-02-04T13:26:21;2.23;;;0.90;;
70312;SDS011;57723;51.698;5.344;2024-02-04T13:28:46;2.10;;;1.03;;
70312;SDS011;57723;51.698;5.344;2024-02-04T13:31:11;1.88;;;0.90;;
70312;SDS011;57723;51.698;5.344;2024-02-04T13:33:40;2.10;;;0.97;;
70312;SDS011;57723;51.698;5.344;2024-02-04T13:36:06;4.47;;;1.10;;
70312;SDS011;57723;51.698;5.344;2024-02-04T13:38:31;5.20;;;1.20;;
70312;SDS011;57723;51.698;5.344;2024-02-04T13:40:57;2.42;;;0.98;;
70312;SDS011;57723;51.698;5.344;2024-02-04T13:43:22;2.53;;;0.90;;
70312;SDS011;57723;51.698;5.344;2024-02-04T13:45:48;4.10;;;1.08;;
70312;SDS011;57723;51.698;5.344;2024-02-04T13:48:14;1.80;;;0.90;;
70312;SDS011;57723;51.698;5.344;2024-02-04T13:50:40;4.63;;;1.10;;
70312;SDS011;57723;51.698;5.344;2024-02-04T13:53:05;1.85;;;1.00;;
70312;SDS011;57723;51.698;5.344;2024-02-04T13:55:31;3.10;;;1.07;;
70312;SDS011;57723;51.698;5.344;2024-02-04T13:57:56;2.50;;;1.00;;
70312;SDS011;57723;51.698;5.344;2024-02-04T14:00:22;1.90;;;0.90;;
70312;SDS011;57723;51.698;5.344;2024-02-04T14:02:47;2.33;;;0.90;;
70312;SDS011;57723;51.698;5.344;2024-02-04T14:05:13;4.07;;;1.20;;
70312;SDS011;57723;51.698;5.344;2024-02-04T14:07:38;2.13;;;0.80;;
70312;SDS011;57723;51.698;5.344;2024-02-04T14:10:04;1.75;;;0.90;;
70312;SDS011;57723;51.698;5.344;2024-02-04T14:12:29;1.30;;;0.80;;
70312;SDS011;57723;51.698;5.344;2024-02-04T14:14:55;2.25;;;0.80;;
70312;SDS011;57723;51.698;5.344;2024-02-04T14:17:20;1.90;;;0.80;;
70312;SDS011;57723;51.698;5.344;2024-02-04T14:19:49;2.20;;;0.80;;
70312;SDS011;57723;51.698;5.344;2024-02-04T14:22:16;2.17;;;0.90;;
70312;SDS011;57723;51.698;5.344;2024-02-04T14:24:46;3.47;;;0.98;;
70312;SDS011;57723;51.698;5.344;2024-02-04T14:27:12;3.77;;;0.97;;
70312;SDS011;57723;51.698;5.344;2024-02-04T14:29:38;2.72;;;0.93;;
70312;SDS011;57723;51.698;5.344;2024-02-04T14:32:06;3.65;;;1.20;;
70312;SDS011;57723;51.698;5.344;2024-02-04T14:34:33;1.47;;;0.83;;
70312;SDS011;57723;51.698;5.344;2024-02-04T14:36:59;2.85;;;0.90;;
70312;SDS011;57723;51.698;5.344;2024-02-04T14:39:24;2.33;;;0.90;;
70312;SDS011;57723;51.698;5.344;2024-02-04T14:41:49;2.20;;;1.00;;
70312;SDS011;57723;51.698;5.344;2024-02-04T14:44:15;1.60;;;0.90;;
70312;SDS011;57723;51.698;5.344;2024-02-04T14:46:41;2.75;;;0.90;;
70312;SDS011;57723;51.698;5.344;2024-02-04T14:49:07;3.90;;;1.10;;
70312;SDS011;57723;51.698;5.344;2024-02-04T14:51:32;2.30;;;0.90;;
70312;SDS011;57723;51.698;5.344;2024-02-04T14:53:59;2.20;;;1.00;;
70312;SDS011;57723;51.698;5.344;2024-02-04T14:56:27;1.77;;;0.97;;